sensor_id;sensor_type;location;lat;lon;timestamp;P1;durP1;ratioP1;P2;durP2;ratioP2
70228;SDS011;57617;51.988;5.854;2022-10-10T00:00:31;9.00;;;4.00;;
70228;SDS011;57617;51.988;5.854;2022-10-10T00:02:56;6.15;;;3.63;;
70228;SDS011;57617;51.988;5.854;2022-10-10T00:05:22;8.48;;;3.67;;
70228;SDS011;57617;51.988;5.854;2022-10-10T00:07:47;5.15;;;3.60;;
70228;SDS011;57617;51.988;5.854;2022-10-10T00:10:12;7.63;;;3.75;;
70228;SDS011;57617;51.988;5.854;2022-10-10T00:12:37;6.47;;;4.13;;
70228;SDS011;57617;51.988;5.854;2022-10-10T00:15:03;7.35;;;3.80;;
70228;SDS011;57617;51.988;5.854;2022-10-10T00:17:28;7.30;;;3.80;;
70228;SDS011;57617;51.988;5.854;2022-10-10T00:19:54;7.85;;;3.47;;
70228;SDS011;57617;51.988;5.854;2022-10-10T00:22:19;9.05;;;3.90;;
70228;SDS011;57617;51.988;5.854;2022-10-10T00:24:44;7.85;;;3.67;;
70228;SDS011;57617;51.988;5.854;2022-10-10T00:27:09;10.63;;;4.20;;
70228;SDS011;57617;51.988;5.854;2022-10-10T00:29:35;5.20;;;3.45;;
70228;SDS011;57617;51.988;5.854;2022-10-10T00:32:00;8.35;;;3.55;;
70228;SDS011;57617;51.988;5.854;2022-10-10T00:34:25;7.65;;;3.70;;
70228;SDS011;57617;51.988;5.854;2022-10-10T00:36:51;8.10;;;4.07;;
70228;SDS011;57617;51.988;5.854;2022-10-10T00:39:16;6.80;;;3.83;;
70228;SDS011;57617;51.988;5.854;2022-10-10T00:41:41;6.95;;;3.80;;
70228;SDS011;57617;51.988;5.854;2022-10-10T00:44:11;7.28;;;3.70;;
70228;SDS011;57617;51.988;5.854;2022-10-10T00:46:38;7.80;;;3.90;;
70228;SDS011;57617;51.988;5.854;2022-10-10T00:49:05;8.57;;;4.00;;
70228;SDS011;57617;51.988;5.854;2022-10-10T00:51:35;6.53;;;4.18;;
70228;SDS011;57617;51.988;5.854;2022-10-10T00:54:02;6.32;;;3.88;;
70228;SDS011;57617;51.988;5.854;2022-10-10T00:56:31;6.97;;;3.60;;
70228;SDS011;57617;51.988;5.854;2022-10-10T00:59:02;8.40;;;3.88;;
70228;SDS011;57617;51.988;5.854;2022-10-10T01:01:29;5.70;;;3.63;;
70228;SDS011;57617;51.988;5.854;2022-10-10T01:03:56;10.77;;;3.90;;
70228;SDS011;57617;51.988;5.854;2022-10-10T01:06:23;9.02;;;3.67;;
70228;SDS011;57617;51.988;5.854;2022-10-10T01:08:49;11.68;;;4.00;;
70228;SDS011;57617;51.988;5.854;2022-10-10T01:11:27;7.13;;;3.85;;
70228;SDS011;57617;51.988;5.854;2022-10-10T01:17:01;8.18;;;3.63;;
70228;SDS011;57617;51.988;5.854;2022-10-10T01:28:01;10.25;;;4.60;;
70228;SDS011;57617;51.988;5.854;2022-10-10T01:30:34;6.72;;;3.90;;
70228;SDS011;57617;51.988;5.854;2022-10-10T01:33:07;8.18;;;4.13;;
70228;SDS011;57617;51.988;5.854;2022-10-10T01:35:54;7.63;;;4.00;;
70228;SDS011;57617;51.988;5.854;2022-10-10T01:38:29;5.70;;;3.92;;
70228;SDS011;57617;51.988;5.854;2022-10-10T01:43:39;6.10;;;4.05;;
70228;SDS011;57617;51.988;5.854;2022-10-10T01:46:12;7.63;;;4.00;;
70228;SDS011;57617;51.988;5.854;2022-10-10T01:48:40;10.38;;;4.38;;
70228;SDS011;57617;51.988;5.854;2022-10-10T02:07:54;7.28;;;4.07;;
70228;SDS011;57617;51.988;5.854;2022-10-10T02:10:25;10.93;;;4.35;;
70228;SDS011;57617;51.988;5.854;2022-10-10T02:12:55;10.45;;;4.40;;
70228;SDS011;57617;51.988;5.854;2022-10-10T02:15:23;8.95;;;4.10;;
70228;SDS011;57617;51.988;5.854;2022-10-10T02:17:52;8.85;;;4.47;;
70228;SDS011;57617;51.988;5.854;2022-10-10T02:20:21;7.72;;;4.03;;
70228;SDS011;57617;51.988;5.854;2022-10-10T02:22:50;8.80;;;4.30;;
70228;SDS011;57617;51.988;5.854;2022-10-10T02:25:15;10.52;;;4.15;;
70228;SDS011;57617;51.988;5.854;2022-10-10T02:27:56;8.95;;;3.95;;
70228;SDS011;57617;51.988;5.854;2022-10-10T02:30:30;7.00;;;3.95;;
70228;SDS011;57617;51.988;5.854;2022-10-10T02:32:59;7.38;;;4.22;;
70228;SDS011;57617;51.988;5.854;2022-10-10T02:35:28;8.48;;;4.28;;
70228;SDS011;57617;51.988;5.854;2022-10-10T02:37:58;12.95;;;4.97;;
70228;SDS011;57617;51.988;5.854;2022-10-10T02:40:27;7.45;;;3.78;;
70228;SDS011;57617;51.988;5.854;2022-10-10T02:42:55;8.85;;;4.60;;
70228;SDS011;57617;51.988;5.854;2022-10-10T02:45:24;9.45;;;4.32;;
70228;SDS011;57617;51.988;5.854;2022-10-10T02:47:50;7.53;;;4.20;;
70228;SDS011;57617;51.988;5.854;2022-10-10T02:50:16;9.02;;;4.10;;
70228;SDS011;57617;51.988;5.854;2022-10-10T02:52:41;8.07;;;4.50;;
70228;SDS011;57617;51.988;5.854;2022-10-10T02:55:07;9.73;;;4.43;;
70228;SDS011;57617;51.988;5.854;2022-10-10T02:57:32;8.20;;;4.10;;
70228;SDS011;57617;51.988;5.854;2022-10-10T02:59:57;8.65;;;4.40;;
70228;SDS011;57617;51.988;5.854;2022-10-10T03:02:23;7.30;;;4.03;;
70228;SDS011;57617;51.988;5.854;2022-10-10T03:04:48;8.38;;;4.03;;
70228;SDS011;57617;51.988;5.854;2022-10-10T03:07:13;8.02;;;4.40;;
70228;SDS011;57617;51.988;5.854;2022-10-10T03:09:39;7.72;;;4.13;;
70228;SDS011;57617;51.988;5.854;2022-10-10T03:12:04;6.00;;;3.97;;
70228;SDS011;57617;51.988;5.854;2022-10-10T03:14:29;6.72;;;4.00;;
70228;SDS011;57617;51.988;5.854;2022-10-10T03:16:55;7.95;;;4.10;;
70228;SDS011;57617;51.988;5.854;2022-10-10T03:19:20;8.40;;;4.20;;
70228;SDS011;57617;51.988;5.854;2022-10-10T03:21:45;10.45;;;4.47;;
70228;SDS011;57617;51.988;5.854;2022-10-10T03:24:10;7.88;;;4.45;;
70228;SDS011;57617;51.988;5.854;2022-10-10T03:26:36;7.78;;;4.60;;
70228;SDS011;57617;51.988;5.854;2022-10-10T03:29:02;9.07;;;4.60;;
70228;SDS011;57617;51.988;5.854;2022-10-10T03:31:27;7.28;;;4.63;;
70228;SDS011;57617;51.988;5.854;2022-10-10T03:33:53;8.38;;;4.35;;
70228;SDS011;57617;51.988;5.854;2022-10-10T03:36:18;9.20;;;4.43;;
70228;SDS011;57617;51.988;5.854;2022-10-10T03:38:43;11.45;;;4.47;;
70228;SDS011;57617;51.988;5.854;2022-10-10T03:41:09;9.70;;;4.55;;
70228;SDS011;57617;51.988;5.854;2022-10-10T03:43:34;10.60;;;4.50;;
70228;SDS011;57617;51.988;5.854;2022-10-10T03:45:59;8.00;;;4.28;;
70228;SDS011;57617;51.988;5.854;2022-10-10T03:48:25;8.15;;;4.40;;
70228;SDS011;57617;51.988;5.854;2022-10-10T03:50:50;11.32;;;4.40;;
70228;SDS011;57617;51.988;5.854;2022-10-10T03:53:15;9.20;;;4.53;;
70228;SDS011;57617;51.988;5.854;2022-10-10T03:55:41;10.02;;;4.80;;
70228;SDS011;57617;51.988;5.854;2022-10-10T03:58:07;7.80;;;4.22;;
70228;SDS011;57617;51.988;5.854;2022-10-10T04:00:34;11.25;;;4.78;;
70228;SDS011;57617;51.988;5.854;2022-10-10T04:03:00;11.40;;;4.70;;
70228;SDS011;57617;51.988;5.854;2022-10-10T04:05:30;10.32;;;4.60;;
70228;SDS011;57617;51.988;5.854;2022-10-10T04:07:57;10.82;;;4.70;;
70228;SDS011;57617;51.988;5.854;2022-10-10T04:10:22;8.55;;;4.35;;
70228;SDS011;57617;51.988;5.854;2022-10-10T04:12:47;11.25;;;4.63;;
70228;SDS011;57617;51.988;5.854;2022-10-10T04:15:13;8.05;;;4.53;;
70228;SDS011;57617;51.988;5.854;2022-10-10T04:17:38;7.35;;;4.13;;
70228;SDS011;57617;51.988;5.854;2022-10-10T04:20:03;9.90;;;4.63;;
70228;SDS011;57617;51.988;5.854;2022-10-10T04:22:29;6.57;;;4.35;;
70228;SDS011;57617;51.988;5.854;2022-10-10T04:24:54;10.63;;;4.97;;
70228;SDS011;57617;51.988;5.854;2022-10-10T04:27:19;8.50;;;4.85;;
70228;SDS011;57617;51.988;5.854;2022-10-10T04:29:45;8.50;;;4.78;;
70228;SDS011;57617;51.988;5.854;2022-10-10T04:32:10;8.20;;;4.82;;
70228;SDS011;57617;51.988;5.854;2022-10-10T04:34:35;8.23;;;4.60;;
70228;SDS011;57617;51.988;5.854;2022-10-10T04:37:00;10.43;;;4.90;;
70228;SDS011;57617;51.988;5.854;2022-10-10T04:39:26;11.15;;;4.50;;
70228;SDS011;57617;51.988;5.854;2022-10-10T04:41:51;10.20;;;4.60;;
70228;SDS011;57617;51.988;5.854;2022-10-10T04:44:17;9.73;;;5.63;;
70228;SDS011;57617;51.988;5.854;2022-10-10T04:46:43;17.50;;;9.88;;
70228;SDS011;57617;51.988;5.854;2022-10-10T04:49:08;17.88;;;11.65;;
70228;SDS011;57617;51.988;5.854;2022-10-10T04:51:33;27.00;;;13.65;;
70228;SDS011;57617;51.988;5.854;2022-10-10T04:53:59;23.13;;;12.50;;
70228;SDS011;57617;51.988;5.854;2022-10-10T04:56:24;21.17;;;11.68;;
70228;SDS011;57617;51.988;5.854;2022-10-10T04:58:50;22.17;;;11.90;;
70228;SDS011;57617;51.988;5.854;2022-10-10T05:01:16;15.50;;;8.23;;
70228;SDS011;57617;51.988;5.854;2022-10-10T05:03:41;13.93;;;8.60;;
70228;SDS011;57617;51.988;5.854;2022-10-10T05:06:06;16.00;;;8.73;;
70228;SDS011;57617;51.988;5.854;2022-10-10T05:08:31;13.98;;;8.27;;
70228;SDS011;57617;51.988;5.854;2022-10-10T05:10:57;9.52;;;5.63;;
70228;SDS011;57617;51.988;5.854;2022-10-10T05:13:22;11.77;;;5.28;;
70228;SDS011;57617;51.988;5.854;2022-10-10T05:15:49;11.63;;;5.90;;
70228;SDS011;57617;51.988;5.854;2022-10-10T05:18:16;11.95;;;5.47;;
70228;SDS011;57617;51.988;5.854;2022-10-10T05:20:41;10.35;;;5.43;;
70228;SDS011;57617;51.988;5.854;2022-10-10T05:23:07;9.35;;;5.10;;
70228;SDS011;57617;51.988;5.854;2022-10-10T05:25:33;11.88;;;5.63;;
70228;SDS011;57617;51.988;5.854;2022-10-10T05:27:58;11.82;;;5.32;;
70228;SDS011;57617;51.988;5.854;2022-10-10T05:30:24;9.35;;;5.28;;
70228;SDS011;57617;51.988;5.854;2022-10-10T05:32:49;10.60;;;4.88;;
70228;SDS011;57617;51.988;5.854;2022-10-10T05:35:14;13.02;;;5.68;;
70228;SDS011;57617;51.988;5.854;2022-10-10T05:37:40;10.98;;;5.28;;
70228;SDS011;57617;51.988;5.854;2022-10-10T05:40:05;12.23;;;5.90;;
70228;SDS011;57617;51.988;5.854;2022-10-10T05:42:31;9.70;;;5.75;;
70228;SDS011;57617;51.988;5.854;2022-10-10T05:44:56;10.90;;;6.32;;
70228;SDS011;57617;51.988;5.854;2022-10-10T05:47:21;10.52;;;5.97;;
70228;SDS011;57617;51.988;5.854;2022-10-10T05:49:48;13.88;;;6.22;;
70228;SDS011;57617;51.988;5.854;2022-10-10T05:52:13;11.18;;;6.00;;
70228;SDS011;57617;51.988;5.854;2022-10-10T05:54:38;12.18;;;5.90;;
70228;SDS011;57617;51.988;5.854;2022-10-10T05:57:04;10.38;;;6.05;;
70228;SDS011;57617;51.988;5.854;2022-10-10T05:59:29;9.93;;;5.75;;
70228;SDS011;57617;51.988;5.854;2022-10-10T06:01:55;12.68;;;6.03;;
70228;SDS011;57617;51.988;5.854;2022-10-10T06:04:21;10.20;;;6.10;;
70228;SDS011;57617;51.988;5.854;2022-10-10T06:06:47;13.07;;;6.30;;
70228;SDS011;57617;51.988;5.854;2022-10-10T06:09:12;13.07;;;6.13;;
70228;SDS011;57617;51.988;5.854;2022-10-10T06:11:38;12.65;;;6.20;;
70228;SDS011;57617;51.988;5.854;2022-10-10T06:14:03;13.48;;;6.30;;
70228;SDS011;57617;51.988;5.854;2022-10-10T06:16:28;13.10;;;6.97;;
70228;SDS011;57617;51.988;5.854;2022-10-10T06:18:53;14.98;;;6.80;;
70228;SDS011;57617;51.988;5.854;2022-10-10T06:21:21;14.10;;;6.47;;
70228;SDS011;57617;51.988;5.854;2022-10-10T06:23:46;11.43;;;6.57;;
70228;SDS011;57617;51.988;5.854;2022-10-10T06:26:12;10.48;;;6.55;;
70228;SDS011;57617;51.988;5.854;2022-10-10T06:28:38;13.77;;;6.50;;
70228;SDS011;57617;51.988;5.854;2022-10-10T06:31:04;12.27;;;6.97;;
70228;SDS011;57617;51.988;5.854;2022-10-10T06:33:32;13.45;;;6.85;;
70228;SDS011;57617;51.988;5.854;2022-10-10T06:35:58;15.00;;;6.72;;
70228;SDS011;57617;51.988;5.854;2022-10-10T06:38:29;14.02;;;7.20;;
70228;SDS011;57617;51.988;5.854;2022-10-10T06:40:54;18.92;;;6.70;;
70228;SDS011;57617;51.988;5.854;2022-10-10T06:43:19;14.15;;;7.07;;
70228;SDS011;57617;51.988;5.854;2022-10-10T06:45:45;13.73;;;7.00;;
70228;SDS011;57617;51.988;5.854;2022-10-10T06:48:13;11.93;;;6.50;;
70228;SDS011;57617;51.988;5.854;2022-10-10T06:50:39;13.43;;;7.60;;
70228;SDS011;57617;51.988;5.854;2022-10-10T06:53:05;13.10;;;6.88;;
70228;SDS011;57617;51.988;5.854;2022-10-10T06:55:31;11.32;;;6.95;;
70228;SDS011;57617;51.988;5.854;2022-10-10T06:57:56;14.40;;;6.80;;
70228;SDS011;57617;51.988;5.854;2022-10-10T07:00:22;12.00;;;7.68;;
70228;SDS011;57617;51.988;5.854;2022-10-10T07:02:48;13.48;;;8.00;;
70228;SDS011;57617;51.988;5.854;2022-10-10T07:05:13;18.48;;;7.95;;
70228;SDS011;57617;51.988;5.854;2022-10-10T07:07:40;15.13;;;7.40;;
70228;SDS011;57617;51.988;5.854;2022-10-10T07:10:07;16.95;;;8.02;;
70228;SDS011;57617;51.988;5.854;2022-10-10T07:12:35;13.52;;;7.50;;
70228;SDS011;57617;51.988;5.854;2022-10-10T07:15:00;16.40;;;7.97;;
70228;SDS011;57617;51.988;5.854;2022-10-10T07:17:26;13.57;;;7.57;;
70228;SDS011;57617;51.988;5.854;2022-10-10T07:19:51;15.52;;;7.50;;
70228;SDS011;57617;51.988;5.854;2022-10-10T07:22:16;16.60;;;7.72;;
70228;SDS011;57617;51.988;5.854;2022-10-10T07:24:42;13.07;;;7.55;;
70228;SDS011;57617;51.988;5.854;2022-10-10T07:27:07;15.13;;;7.55;;
70228;SDS011;57617;51.988;5.854;2022-10-10T07:29:32;17.35;;;7.72;;
70228;SDS011;57617;51.988;5.854;2022-10-10T07:31:58;12.82;;;8.00;;
70228;SDS011;57617;51.988;5.854;2022-10-10T07:34:23;14.23;;;7.60;;
70228;SDS011;57617;51.988;5.854;2022-10-10T07:36:49;14.18;;;7.90;;
70228;SDS011;57617;51.988;5.854;2022-10-10T07:39:21;17.27;;;8.55;;
70228;SDS011;57617;51.988;5.854;2022-10-10T07:41:48;14.93;;;7.80;;
70228;SDS011;57617;51.988;5.854;2022-10-10T07:44:14;14.32;;;8.55;;
70228;SDS011;57617;51.988;5.854;2022-10-10T07:46:39;16.33;;;8.50;;
70228;SDS011;57617;51.988;5.854;2022-10-10T07:49:05;16.08;;;8.07;;
70228;SDS011;57617;51.988;5.854;2022-10-10T07:51:30;14.98;;;7.68;;
70228;SDS011;57617;51.988;5.854;2022-10-10T07:53:55;15.75;;;8.18;;
70228;SDS011;57617;51.988;5.854;2022-10-10T07:56:20;17.10;;;8.48;;
70228;SDS011;57617;51.988;5.854;2022-10-10T07:58:46;14.75;;;7.63;;
70228;SDS011;57617;51.988;5.854;2022-10-10T08:01:11;13.60;;;8.15;;
70228;SDS011;57617;51.988;5.854;2022-10-10T08:03:37;14.20;;;8.50;;
70228;SDS011;57617;51.988;5.854;2022-10-10T08:06:04;18.15;;;8.45;;
70228;SDS011;57617;51.988;5.854;2022-10-10T08:08:30;13.75;;;7.90;;
70228;SDS011;57617;51.988;5.854;2022-10-10T08:10:56;13.10;;;8.05;;
70228;SDS011;57617;51.988;5.854;2022-10-10T08:13:22;13.30;;;8.07;;
70228;SDS011;57617;51.988;5.854;2022-10-10T08:15:51;16.55;;;8.48;;
70228;SDS011;57617;51.988;5.854;2022-10-10T08:18:17;14.90;;;8.02;;
70228;SDS011;57617;51.988;5.854;2022-10-10T08:20:43;16.70;;;8.23;;
70228;SDS011;57617;51.988;5.854;2022-10-10T08:23:08;17.77;;;8.55;;
70228;SDS011;57617;51.988;5.854;2022-10-10T08:25:34;17.65;;;8.38;;
70228;SDS011;57617;51.988;5.854;2022-10-10T08:27:59;14.35;;;7.57;;
70228;SDS011;57617;51.988;5.854;2022-10-10T08:30:24;17.00;;;8.63;;
70228;SDS011;57617;51.988;5.854;2022-10-10T08:32:50;21.15;;;8.80;;
70228;SDS011;57617;51.988;5.854;2022-10-10T08:35:15;15.35;;;8.77;;
70228;SDS011;57617;51.988;5.854;2022-10-10T08:37:40;14.48;;;8.50;;
70228;SDS011;57617;51.988;5.854;2022-10-10T08:40:06;16.17;;;8.10;;
70228;SDS011;57617;51.988;5.854;2022-10-10T08:42:33;15.55;;;8.43;;
70228;SDS011;57617;51.988;5.854;2022-10-10T08:45:04;18.67;;;8.90;;
70228;SDS011;57617;51.988;5.854;2022-10-10T08:47:38;18.73;;;8.50;;
70228;SDS011;57617;51.988;5.854;2022-10-10T08:50:15;17.13;;;8.15;;
70228;SDS011;57617;51.988;5.854;2022-10-10T08:52:46;28.67;;;8.77;;
70228;SDS011;57617;51.988;5.854;2022-10-10T08:58:05;15.05;;;8.05;;
70228;SDS011;57617;51.988;5.854;2022-10-10T09:00:42;17.75;;;8.05;;
70228;SDS011;57617;51.988;5.854;2022-10-10T09:11:50;16.83;;;8.68;;
70228;SDS011;57617;51.988;5.854;2022-10-10T09:26:01;15.02;;;8.10;;
70228;SDS011;57617;51.988;5.854;2022-10-10T09:28:35;17.08;;;9.77;;
70228;SDS011;57617;51.988;5.854;2022-10-10T09:31:07;18.13;;;8.30;;
70228;SDS011;57617;51.988;5.854;2022-10-10T09:33:43;16.45;;;7.68;;
70228;SDS011;57617;51.988;5.854;2022-10-10T09:36:15;14.55;;;7.93;;
70228;SDS011;57617;51.988;5.854;2022-10-10T09:38:49;13.15;;;7.63;;
70228;SDS011;57617;51.988;5.854;2022-10-10T09:41:22;16.10;;;7.82;;
70228;SDS011;57617;51.988;5.854;2022-10-10T09:43:58;16.30;;;8.15;;
70228;SDS011;57617;51.988;5.854;2022-10-10T09:46:24;15.07;;;8.45;;
70228;SDS011;57617;51.988;5.854;2022-10-10T09:48:50;14.20;;;8.13;;
70228;SDS011;57617;51.988;5.854;2022-10-10T09:51:17;17.45;;;7.75;;
70228;SDS011;57617;51.988;5.854;2022-10-10T09:53:45;15.38;;;7.78;;
70228;SDS011;57617;51.988;5.854;2022-10-10T09:56:30;16.20;;;8.10;;
70228;SDS011;57617;51.988;5.854;2022-10-10T09:58:58;18.38;;;8.55;;
70228;SDS011;57617;51.988;5.854;2022-10-10T10:01:27;13.20;;;7.97;;
70228;SDS011;57617;51.988;5.854;2022-10-10T10:04:12;15.95;;;9.02;;
70228;SDS011;57617;51.988;5.854;2022-10-10T10:06:42;20.08;;;8.60;;
70228;SDS011;57617;51.988;5.854;2022-10-10T10:09:13;13.50;;;8.10;;
70228;SDS011;57617;51.988;5.854;2022-10-10T10:11:40;18.48;;;8.43;;
70228;SDS011;57617;51.988;5.854;2022-10-10T10:14:15;15.07;;;7.80;;
70228;SDS011;57617;51.988;5.854;2022-10-10T10:16:49;14.85;;;7.88;;
70228;SDS011;57617;51.988;5.854;2022-10-10T10:19:28;18.63;;;8.65;;
70228;SDS011;57617;51.988;5.854;2022-10-10T10:21:56;13.20;;;7.90;;
70228;SDS011;57617;51.988;5.854;2022-10-10T10:24:22;14.85;;;8.38;;
70228;SDS011;57617;51.988;5.854;2022-10-10T10:26:53;17.80;;;8.88;;
70228;SDS011;57617;51.988;5.854;2022-10-10T10:29:32;15.05;;;7.97;;
70228;SDS011;57617;51.988;5.854;2022-10-10T10:34:47;17.25;;;9.18;;
70228;SDS011;57617;51.988;5.854;2022-10-10T10:37:24;15.18;;;8.43;;
70228;SDS011;57617;51.988;5.854;2022-10-10T10:42:53;13.88;;;8.88;;
70228;SDS011;57617;51.988;5.854;2022-10-10T10:45:43;13.77;;;7.95;;
70228;SDS011;57617;51.988;5.854;2022-10-10T10:49:14;18.13;;;8.68;;
70228;SDS011;57617;51.988;5.854;2022-10-10T10:54:32;15.85;;;7.93;;
70228;SDS011;57617;51.988;5.854;2022-10-10T10:57:40;15.05;;;7.60;;
70228;SDS011;57617;51.988;5.854;2022-10-10T11:00:32;16.08;;;7.88;;
70228;SDS011;57617;51.988;5.854;2022-10-10T11:08:46;18.38;;;8.05;;
70228;SDS011;57617;51.988;5.854;2022-10-10T11:16:46;16.98;;;8.13;;
70228;SDS011;57617;51.988;5.854;2022-10-10T11:22:02;16.45;;;7.65;;
70228;SDS011;57617;51.988;5.854;2022-10-10T11:27:10;18.52;;;7.57;;
70228;SDS011;57617;51.988;5.854;2022-10-10T11:30:13;12.60;;;7.30;;
70228;SDS011;57617;51.988;5.854;2022-10-10T11:32:33;16.40;;;7.50;;
70228;SDS011;57617;51.988;5.854;2022-10-10T11:38:09;17.85;;;7.45;;
70228;SDS011;57617;51.988;5.854;2022-10-10T11:43:37;12.23;;;6.65;;
70228;SDS011;57617;51.988;5.854;2022-10-10T11:46:24;14.40;;;6.85;;
70228;SDS011;57617;51.988;5.854;2022-10-10T11:54:28;17.52;;;7.18;;
70228;SDS011;57617;51.988;5.854;2022-10-10T11:57:06;16.52;;;7.45;;
70228;SDS011;57617;51.988;5.854;2022-10-10T11:59:50;16.33;;;7.65;;
70228;SDS011;57617;51.988;5.854;2022-10-10T12:02:29;15.55;;;7.70;;
70228;SDS011;57617;51.988;5.854;2022-10-10T12:04:57;14.60;;;7.43;;
70228;SDS011;57617;51.988;5.854;2022-10-10T12:10:05;16.73;;;7.50;;
70228;SDS011;57617;51.988;5.854;2022-10-10T12:12:38;16.15;;;7.40;;
70228;SDS011;57617;51.988;5.854;2022-10-10T12:15:12;15.70;;;7.30;;
70228;SDS011;57617;51.988;5.854;2022-10-10T12:17:49;15.23;;;7.28;;
70228;SDS011;57617;51.988;5.854;2022-10-10T12:22:40;16.75;;;7.55;;
70228;SDS011;57617;51.988;5.854;2022-10-10T12:25:17;16.00;;;7.28;;
70228;SDS011;57617;51.988;5.854;2022-10-10T12:28:00;14.80;;;7.45;;
70228;SDS011;57617;51.988;5.854;2022-10-10T12:30:26;12.80;;;7.10;;
70228;SDS011;57617;51.988;5.854;2022-10-10T12:32:52;13.30;;;7.10;;
70228;SDS011;57617;51.988;5.854;2022-10-10T12:38:06;19.98;;;6.88;;
70228;SDS011;57617;51.988;5.854;2022-10-10T12:40:34;13.93;;;6.88;;
70228;SDS011;57617;51.988;5.854;2022-10-10T12:43:38;14.13;;;7.50;;
70228;SDS011;57617;51.988;5.854;2022-10-10T12:46:07;18.17;;;7.60;;
70228;SDS011;57617;51.988;5.854;2022-10-10T12:48:41;15.40;;;7.43;;
70228;SDS011;57617;51.988;5.854;2022-10-10T12:51:16;21.27;;;8.20;;
70228;SDS011;57617;51.988;5.854;2022-10-10T12:53:46;16.67;;;7.20;;
70228;SDS011;57617;51.988;5.854;2022-10-10T12:56:16;13.77;;;7.43;;
70228;SDS011;57617;51.988;5.854;2022-10-10T12:58:41;19.10;;;8.30;;
70228;SDS011;57617;51.988;5.854;2022-10-10T13:01:25;19.02;;;8.30;;
70228;SDS011;57617;51.988;5.854;2022-10-10T13:03:53;22.70;;;8.82;;
70228;SDS011;57617;51.988;5.854;2022-10-10T13:06:29;22.27;;;8.77;;
70228;SDS011;57617;51.988;5.854;2022-10-10T13:09:00;20.65;;;8.57;;
70228;SDS011;57617;51.988;5.854;2022-10-10T13:11:31;18.83;;;9.30;;
70228;SDS011;57617;51.988;5.854;2022-10-10T13:13:56;18.35;;;9.15;;
70228;SDS011;57617;51.988;5.854;2022-10-10T13:16:23;18.23;;;9.38;;
70228;SDS011;57617;51.988;5.854;2022-10-10T13:18:51;16.75;;;9.23;;
70228;SDS011;57617;51.988;5.854;2022-10-10T13:21:32;22.08;;;9.27;;
70228;SDS011;57617;51.988;5.854;2022-10-10T13:23:59;22.17;;;9.80;;
70228;SDS011;57617;51.988;5.854;2022-10-10T13:26:27;20.48;;;9.65;;
70228;SDS011;57617;51.988;5.854;2022-10-10T13:29:03;22.50;;;9.23;;
70228;SDS011;57617;51.988;5.854;2022-10-10T13:31:36;18.83;;;9.52;;
70228;SDS011;57617;51.988;5.854;2022-10-10T13:34:03;14.73;;;8.90;;
70228;SDS011;57617;51.988;5.854;2022-10-10T13:36:30;17.02;;;9.38;;
70228;SDS011;57617;51.988;5.854;2022-10-10T13:38:56;20.13;;;9.27;;
70228;SDS011;57617;51.988;5.854;2022-10-10T13:41:23;17.67;;;9.38;;
70228;SDS011;57617;51.988;5.854;2022-10-10T13:43:50;23.02;;;9.73;;
70228;SDS011;57617;51.988;5.854;2022-10-10T13:48:52;17.20;;;9.63;;
70228;SDS011;57617;51.988;5.854;2022-10-10T13:51:18;20.98;;;9.65;;
70228;SDS011;57617;51.988;5.854;2022-10-10T13:53:48;19.02;;;9.80;;
70228;SDS011;57617;51.988;5.854;2022-10-10T13:58:50;26.33;;;11.38;;
70228;SDS011;57617;51.988;5.854;2022-10-10T14:06:40;20.38;;;11.02;;
70228;SDS011;57617;51.988;5.854;2022-10-10T14:09:14;25.30;;;10.93;;
70228;SDS011;57617;51.988;5.854;2022-10-10T14:11:47;24.40;;;11.40;;
70228;SDS011;57617;51.988;5.854;2022-10-10T14:14:20;23.15;;;10.65;;
70228;SDS011;57617;51.988;5.854;2022-10-10T14:17:01;17.75;;;10.25;;
70228;SDS011;57617;51.988;5.854;2022-10-10T14:19:28;24.33;;;11.18;;
70228;SDS011;57617;51.988;5.854;2022-10-10T14:21:54;23.40;;;10.75;;
70228;SDS011;57617;51.988;5.854;2022-10-10T14:24:19;19.85;;;11.45;;
70228;SDS011;57617;51.988;5.854;2022-10-10T14:26:45;25.83;;;12.02;;
70228;SDS011;57617;51.988;5.854;2022-10-10T14:29:14;22.13;;;12.55;;
70228;SDS011;57617;51.988;5.854;2022-10-10T14:31:40;22.63;;;12.65;;
70228;SDS011;57617;51.988;5.854;2022-10-10T14:34:10;36.22;;;13.15;;
70228;SDS011;57617;51.988;5.854;2022-10-10T14:36:39;23.30;;;12.38;;
70228;SDS011;57617;51.988;5.854;2022-10-10T14:39:20;23.52;;;12.73;;
70228;SDS011;57617;51.988;5.854;2022-10-10T14:41:45;25.08;;;13.27;;
70228;SDS011;57617;51.988;5.854;2022-10-10T14:44:11;22.40;;;11.93;;
70228;SDS011;57617;51.988;5.854;2022-10-10T14:46:37;8.98;;;5.30;;
70228;SDS011;57617;51.988;5.854;2022-10-10T14:49:02;13.38;;;5.10;;
70228;SDS011;57617;51.988;5.854;2022-10-10T14:51:28;7.20;;;3.85;;
70228;SDS011;57617;51.988;5.854;2022-10-10T14:53:53;5.72;;;2.15;;
70228;SDS011;57617;51.988;5.854;2022-10-10T14:56:19;4.63;;;1.67;;
70228;SDS011;57617;51.988;5.854;2022-10-10T14:58:44;1.60;;;1.20;;
70228;SDS011;57617;51.988;5.854;2022-10-10T15:01:09;1.40;;;0.93;;
70228;SDS011;57617;51.988;5.854;2022-10-10T15:03:34;2.22;;;1.20;;
70228;SDS011;57617;51.988;5.854;2022-10-10T15:06:00;3.30;;;0.93;;
70228;SDS011;57617;51.988;5.854;2022-10-10T15:08:26;5.07;;;0.98;;
70228;SDS011;57617;51.988;5.854;2022-10-10T15:10:51;4.03;;;0.80;;
70228;SDS011;57617;51.988;5.854;2022-10-10T15:13:17;2.15;;;0.85;;
70228;SDS011;57617;51.988;5.854;2022-10-10T15:15:42;2.92;;;0.80;;
70228;SDS011;57617;51.988;5.854;2022-10-10T15:18:07;3.15;;;0.80;;
70228;SDS011;57617;51.988;5.854;2022-10-10T15:20:33;3.00;;;0.80;;
70228;SDS011;57617;51.988;5.854;2022-10-10T15:23:00;3.05;;;0.85;;
70228;SDS011;57617;51.988;5.854;2022-10-10T15:25:29;3.25;;;1.00;;
70228;SDS011;57617;51.988;5.854;2022-10-10T15:27:55;6.00;;;1.20;;
70228;SDS011;57617;51.988;5.854;2022-10-10T15:30:21;4.65;;;1.20;;
70228;SDS011;57617;51.988;5.854;2022-10-10T15:32:47;6.45;;;1.00;;
70228;SDS011;57617;51.988;5.854;2022-10-10T15:35:14;6.22;;;1.13;;
70228;SDS011;57617;51.988;5.854;2022-10-10T15:37:42;6.50;;;1.40;;
70228;SDS011;57617;51.988;5.854;2022-10-10T15:40:08;5.85;;;1.25;;
70228;SDS011;57617;51.988;5.854;2022-10-10T15:42:34;7.90;;;1.33;;
70228;SDS011;57617;51.988;5.854;2022-10-10T15:44:59;6.75;;;1.27;;
70228;SDS011;57617;51.988;5.854;2022-10-10T15:47:24;6.50;;;1.45;;
70228;SDS011;57617;51.988;5.854;2022-10-10T15:49:50;10.18;;;1.75;;
70228;SDS011;57617;51.988;5.854;2022-10-10T15:52:15;11.02;;;1.73;;
70228;SDS011;57617;51.988;5.854;2022-10-10T15:54:41;8.25;;;1.40;;
70228;SDS011;57617;51.988;5.854;2022-10-10T15:57:07;8.60;;;1.60;;
70228;SDS011;57617;51.988;5.854;2022-10-10T15:59:32;13.52;;;1.60;;
70228;SDS011;57617;51.988;5.854;2022-10-10T16:01:58;14.52;;;1.60;;
70228;SDS011;57617;51.988;5.854;2022-10-10T16:04:24;10.75;;;1.50;;
70228;SDS011;57617;51.988;5.854;2022-10-10T16:06:50;8.43;;;1.30;;
70228;SDS011;57617;51.988;5.854;2022-10-10T16:09:15;10.50;;;1.40;;
70228;SDS011;57617;51.988;5.854;2022-10-10T16:11:40;13.32;;;1.75;;
70228;SDS011;57617;51.988;5.854;2022-10-10T16:14:06;10.95;;;1.60;;
70228;SDS011;57617;51.988;5.854;2022-10-10T16:16:31;15.27;;;1.67;;
70228;SDS011;57617;51.988;5.854;2022-10-10T16:18:56;9.57;;;1.77;;
70228;SDS011;57617;51.988;5.854;2022-10-10T16:21:23;12.45;;;1.88;;
70228;SDS011;57617;51.988;5.854;2022-10-10T16:23:49;11.80;;;1.73;;
70228;SDS011;57617;51.988;5.854;2022-10-10T16:28:42;11.68;;;1.92;;
70228;SDS011;57617;51.988;5.854;2022-10-10T16:31:09;15.13;;;1.90;;
70228;SDS011;57617;51.988;5.854;2022-10-10T16:33:36;12.73;;;2.08;;
70228;SDS011;57617;51.988;5.854;2022-10-10T16:36:09;15.75;;;2.70;;